x

Shumagin Islands - 85nm South Of Sand Point, Ak (46075) Wave Buoy

11:50 - Mon 26th Jan 2015 All times are UTC.

  • Sig Wave height 7.5ft
  • Peak Period 8s
  • Average Period 6s
  • Wind
    20mph, 25mph gusts
  • Sea Temp 43°f
  • Air Temp 40°f
  • Sea Pressure 997.2mb

More Historic Weather Station data

Upgrade to MSW Pro to gain access to the past 30 days of data for over 8000 Wavebouys and Weather Stations around the globe.

Join Pro

Comparision Forecast

View Surf forecast
   
lun. 01/26 11:50 7.5ft 8s 6s 20 25 mph 997.2mb 43f 40f
10:50 8.5ft 8s 6s 16 18 mph 997.8mb 44f 42f
9:50 8ft 8s 6s 16 20 mph 998.1mb 43f 41f
8:50 7.5ft 8s 6s 18 22 mph 998.1mb 43f 42f
7:50 8.5ft 8s 6s 18 20 mph 997.8mb 43f 42f
6:50 8ft 8s 6s 18 20 mph 997.5mb 43f 41f
5:50 9ft 8s 6s 18 22 mph 997.1mb 43f 41f
4:50 9.5ft 8s 6s 18 22 mph 996.7mb 43f 41f
3:50 9ft 9s 6s 18 22 mph 996.5mb 44f 42f
2:50 9.5ft 8s 6s 20 22 mph 996.5mb 43f 41f
1:50 9.5ft 8s 6s 18 20 mph 996.5mb 43f 40f
12:50 9.5ft 8s 6s 22 27 mph 996.4mb 43f 41f
11:50 8.5ft 7s 5s 27 34 mph 996.6mb 43f 40f
10:50 8.5ft 7s 5s 27 34 mph 997.1mb 42f 39f
9:50 8ft 8s 5s 29 36 mph 998mb 42f 38f
8:50 8.5ft 8s 5s 27 31 mph 998.8mb 43f 38f
7:50 9.5ft 7s 5s 25 29 mph 999.6mb 42f 38f
6:50 9ft 7s 5s 31 38 mph 1000.1mb 43f 38f
5:50 8.5ft 6s 5s 31 38 mph 1000.7mb 43f 37f
4:50 7ft 6s 4s 31 36 mph 1001.3mb 43f 37f
3:50 5ft 5s 4s 29 34 mph 1002.2mb 43f 36f
2:50 5ft 9s 4s 22 27 mph 1003.2mb 43f 36f
1:50 4.5ft 9s 5s 22 27 mph 1003.9mb 43f 38f
12:50 3.5ft 9s 5s 18 20 mph 1004.8mb 43f 37f
dim. 01/25 11:50 4.5ft 12s 6s 16 20 mph 1005.8mb 42f 36f
10:50 4.5ft 9s 6s 11 13 mph 1006.8mb 43f 34f
9:50 4ft 12s 6s 16 25 mph 1007.4mb 43f 35f
8:50 4ft 11s 6s 13 18 mph 1008mb 43f 35f
7:50 4ft 13s 7s 13 18 mph 1008mb 43f 35f
6:50 4.5ft 11s 7s 7 11 mph 1008.1mb 43f 34f
5:50 4ft 12s 7s 9 16 mph 1008.1mb 42f 34f
4:50 3.5ft 12s 7s 11 16 mph 1008.1mb 43f 34f
3:50 4.5ft 10s 6s 11 16 mph 1008.2mb 43f 34f
2:50 4.5ft 13s 6s 2 7 mph 1008.4mb 43f 34f
1:50 4.5ft 10s 6s 4 7 mph 1008.8mb 43f 34f
12:50 4.5ft 10s 6s 4 9 mph 1008.9mb 43f 33f
11:50 5ft 9s 6s 2 7 mph 1008.7mb 43f 33f
10:50 5ft 9s 6s 7 11 mph 1008.9mb 43f 33f
9:50 5ft 13s 6s 9 13 mph 1009mb 43f 33f
8:50 5ft 11s 6s 16 20 mph 1008.7mb 43f 33f
7:50 6ft 8s 6s 13 18 mph 1008.5mb 43f 33f
6:50 5.5ft 9s 6s 13 18 mph 1008.2mb 43f 33f
5:50 6ft 8s 6s 13 18 mph 1008.2mb 43f 32f
4:50 6ft 8s 6s 16 22 mph 1008mb 42f 32f
3:50 6ft 9s 6s 16 20 mph 1007.8mb 42f 32f
2:50 6ft 7s 6s 13 18 mph 1007.5mb 42f 32f
1:50 6ft 8s 6s 13 16 mph 1007mb 42f 32f
12:50 6ft 9s 6s 11 16 mph 1007.1mb 42f 32f
sam. 01/24 11:50 7ft 8s 6s 13 18 mph 1007.3mb 42f 32f
10:50 7ft 8s 6s 11 18 mph 1007.3mb 42f 32f
9:50 6.5ft 6s 6s 11 13 mph 1007.3mb 42f 33f
8:50 8ft 8s 6s 9 13 mph 1007.5mb 42f 34f
7:50 8ft 9s 6s 11 16 mph 1007.4mb 42f 32f
6:50 9ft 9s 6s 13 18 mph 1007mb 42f 31f
5:50 9ft 8s 6s 18 22 mph 1006.3mb 42f 31f
4:50 10ft 8s 6s 18 20 mph 1005.9mb 42f 31f
3:50 9ft 7s 6s 18 22 mph 1005.3mb 42f 31f
2:50 9ft 7s 6s 20 22 mph 1005.1mb 42f 31f
1:50 8.5ft 7s 6s 20 27 mph 1004.5mb 42f 32f
12:50 10ft 7s 6s 25 29 mph 1003.9mb 42f 32f
11:50 9.5ft 8s 6s 25 29 mph 1003.5mb 41f 32f
10:50 10ft 8s 6s 25 29 mph 1003.1mb 41f 32f
9:50 10ft 8s 6s 25 31 mph 1002.6mb 41f 33f
8:50 11ft 8s 6s 27 31 mph 1002.2mb 41f 33f
7:50 11ft 8s 6s 27 31 mph 1001.5mb 41f 33f
6:50 12ft 8s 6s 27 31 mph 1000.8mb 41f 33f
5:50 12ft 8s 6s 27 36 mph 999.9mb 41f 34f
4:50 12.5ft 9s 7s 29 36 mph 999.1mb 41f 34f
3:50 13ft 8s 7s 27 34 mph 998.2mb 41f 35f
2:50 12ft 9s 7s 29 34 mph 996.7mb 41f 34f
1:50 13ft 9s 7s 27 36 mph 995.8mb 41f 35f
12:50 14ft 9s 7s 27 31 mph 994.9mb 41f 35f
ven. 01/23 11:50 13.5ft 8s 7s 31 36 mph 993.9mb 41f 35f
10:50 15ft 8s 7s 34 43 mph 993.3mb 41f 34f
9:50 15.5ft 8s 7s 31 38 mph 993.1mb 41f 35f
8:50 15ft 9s 7s 31 38 mph 992.1mb 41f 35f
7:50 15.5ft 9s 7s 34 40 mph 991mb 41f 35f
6:50 15.5ft 9s 7s 34 40 mph 989.7mb 41f 35f
5:50 15ft 10s 7s 34 38 mph 988.2mb 41f 35f
4:50 15ft 10s 7s 34 40 mph 987mb 41f 34f
3:50 15.5ft 10s 7s 34 38 mph 985.8mb 41f 36f
2:50 17ft 9s 7s 36 43 mph 984.6mb 41f 36f
1:50 18ft 10s 8s 34 43 mph 983.8mb 41f 36f
12:50 14ft 8s 7s 34 43 mph 983mb 41f 37f
11:50 14ft 9s 7s 34 43 mph 982mb 41f 36f
10:50 15.5ft 9s 7s 36 45 mph 981.3mb 41f 36f
9:50 15.5ft 10s 7s 36 45 mph 980.7mb 41f 36f
8:50  -   -   -  36 43 mph 980.2mb 41f 37f
7:50 15.5ft 9s 7s 36 43 mph 979.6mb 41f 36f
6:50 15.5ft 9s 7s 36 43 mph 978.9mb 41f 36f
5:50  -   -   -  36 43 mph 978.4mb 41f 36f
4:50 15ft 10s 7s 36 43 mph 977.7mb 41f 36f
3:50 15.5ft 9s 7s 34 43 mph 977.3mb 41f 37f
2:50 14ft 8s 7s 34 40 mph 976.8mb 41f 37f
1:50 15.5ft 8s 7s 34 40 mph 976.3mb 41f 37f